sensor_id;sensor_type;location;lat;lon;timestamp;P1;durP1;ratioP1;P2;durP2;ratioP2
44456;SDS011;30159;49.316;8.558;2022-08-21T00:02:18;2.77;;;2.57;;
44456;SDS011;30159;49.316;8.558;2022-08-21T00:04:47;3.10;;;2.80;;
44456;SDS011;30159;49.316;8.558;2022-08-21T00:07:15;2.80;;;2.27;;
44456;SDS011;30159;49.316;8.558;2022-08-21T00:09:43;2.43;;;2.00;;
44456;SDS011;30159;49.316;8.558;2022-08-21T00:12:10;2.80;;;2.60;;
44456;SDS011;30159;49.316;8.558;2022-08-21T00:14:37;3.87;;;3.20;;
44456;SDS011;30159;49.316;8.558;2022-08-21T00:17:04;2.60;;;2.23;;
44456;SDS011;30159;49.316;8.558;2022-08-21T00:19:31;2.73;;;2.50;;
44456;SDS011;30159;49.316;8.558;2022-08-21T00:21:58;3.03;;;2.40;;
44456;SDS011;30159;49.316;8.558;2022-08-21T00:24:26;3.87;;;2.80;;
44456;SDS011;30159;49.316;8.558;2022-08-21T00:26:53;2.73;;;2.53;;
44456;SDS011;30159;49.316;8.558;2022-08-21T00:29:20;2.37;;;2.17;;
44456;SDS011;30159;49.316;8.558;2022-08-21T00:31:47;2.63;;;2.43;;
44456;SDS011;30159;49.316;8.558;2022-08-21T00:34:14;4.20;;;2.80;;
44456;SDS011;30159;49.316;8.558;2022-08-21T00:36:40;2.60;;;2.40;;
44456;SDS011;30159;49.316;8.558;2022-08-21T00:39:07;2.67;;;2.47;;
44456;SDS011;30159;49.316;8.558;2022-08-21T00:41:37;3.47;;;3.17;;
44456;SDS011;30159;49.316;8.558;2022-08-21T00:44:04;2.73;;;2.53;;
44456;SDS011;30159;49.316;8.558;2022-08-21T00:46:32;3.73;;;3.13;;
44456;SDS011;30159;49.316;8.558;2022-08-21T00:48:59;3.30;;;3.10;;
44456;SDS011;30159;49.316;8.558;2022-08-21T00:51:28;2.60;;;2.40;;
44456;SDS011;30159;49.316;8.558;2022-08-21T00:54:01;3.47;;;3.27;;
44456;SDS011;30159;49.316;8.558;2022-08-21T00:56:28;3.30;;;3.03;;
44456;SDS011;30159;49.316;8.558;2022-08-21T00:58:56;7.03;;;3.80;;
44456;SDS011;30159;49.316;8.558;2022-08-21T01:01:25;4.87;;;3.00;;
44456;SDS011;30159;49.316;8.558;2022-08-21T01:03:52;3.60;;;2.67;;
44456;SDS011;30159;49.316;8.558;2022-08-21T01:06:19;3.20;;;3.00;;
44456;SDS011;30159;49.316;8.558;2022-08-21T01:08:46;4.20;;;3.50;;
44456;SDS011;30159;49.316;8.558;2022-08-21T01:11:13;2.90;;;2.70;;
44456;SDS011;30159;49.316;8.558;2022-08-21T01:13:40;3.53;;;3.23;;
44456;SDS011;30159;49.316;8.558;2022-08-21T01:16:13;4.73;;;2.87;;
44456;SDS011;30159;49.316;8.558;2022-08-21T01:18:44;3.93;;;2.80;;
44456;SDS011;30159;49.316;8.558;2022-08-21T01:21:14;4.57;;;2.90;;
44456;SDS011;30159;49.316;8.558;2022-08-21T01:23:43;3.10;;;2.80;;
44456;SDS011;30159;49.316;8.558;2022-08-21T01:26:11;6.23;;;2.70;;
44456;SDS011;30159;49.316;8.558;2022-08-21T01:28:42;2.87;;;2.63;;
44456;SDS011;30159;49.316;8.558;2022-08-21T01:31:12;3.23;;;2.90;;
44456;SDS011;30159;49.316;8.558;2022-08-21T01:33:41;3.90;;;2.90;;
44456;SDS011;30159;49.316;8.558;2022-08-21T01:36:07;3.07;;;2.87;;
44456;SDS011;30159;49.316;8.558;2022-08-21T01:38:35;3.13;;;2.93;;
44456;SDS011;30159;49.316;8.558;2022-08-21T01:41:02;3.77;;;3.57;;
44456;SDS011;30159;49.316;8.558;2022-08-21T01:43:29;3.30;;;3.10;;
44456;SDS011;30159;49.316;8.558;2022-08-21T01:45:55;4.00;;;3.10;;
44456;SDS011;30159;49.316;8.558;2022-08-21T01:48:22;3.23;;;3.03;;
44456;SDS011;30159;49.316;8.558;2022-08-21T01:50:48;3.50;;;3.30;;
44456;SDS011;30159;49.316;8.558;2022-08-21T01:53:15;3.37;;;3.17;;
44456;SDS011;30159;49.316;8.558;2022-08-21T01:55:43;3.60;;;3.40;;
44456;SDS011;30159;49.316;8.558;2022-08-21T01:58:10;3.77;;;3.57;;
44456;SDS011;30159;49.316;8.558;2022-08-21T02:00:37;3.60;;;3.30;;
44456;SDS011;30159;49.316;8.558;2022-08-21T02:03:03;5.60;;;3.77;;
44456;SDS011;30159;49.316;8.558;2022-08-21T02:05:30;4.67;;;3.77;;
44456;SDS011;30159;49.316;8.558;2022-08-21T02:07:57;3.47;;;3.07;;
44456;SDS011;30159;49.316;8.558;2022-08-21T02:10:24;4.20;;;2.70;;
44456;SDS011;30159;49.316;8.558;2022-08-21T02:12:55;3.57;;;3.27;;
44456;SDS011;30159;49.316;8.558;2022-08-21T02:15:23;3.23;;;2.80;;
44456;SDS011;30159;49.316;8.558;2022-08-21T02:17:51;4.20;;;3.80;;
44456;SDS011;30159;49.316;8.558;2022-08-21T02:20:20;3.27;;;2.90;;
44456;SDS011;30159;49.316;8.558;2022-08-21T02:22:48;3.27;;;2.97;;
44456;SDS011;30159;49.316;8.558;2022-08-21T02:25:15;4.90;;;3.00;;
44456;SDS011;30159;49.316;8.558;2022-08-21T02:27:43;3.27;;;2.97;;
44456;SDS011;30159;49.316;8.558;2022-08-21T02:30:15;2.67;;;2.47;;
44456;SDS011;30159;49.316;8.558;2022-08-21T02:32:43;3.30;;;2.97;;
44456;SDS011;30159;49.316;8.558;2022-08-21T02:35:10;5.50;;;3.50;;
44456;SDS011;30159;49.316;8.558;2022-08-21T02:37:44;6.40;;;3.60;;
44456;SDS011;30159;49.316;8.558;2022-08-21T02:40:12;3.17;;;2.87;;
44456;SDS011;30159;49.316;8.558;2022-08-21T02:42:40;4.07;;;3.00;;
44456;SDS011;30159;49.316;8.558;2022-08-21T02:45:08;4.23;;;3.27;;
44456;SDS011;30159;49.316;8.558;2022-08-21T02:47:37;3.50;;;3.10;;
44456;SDS011;30159;49.316;8.558;2022-08-21T02:50:04;2.90;;;2.70;;
44456;SDS011;30159;49.316;8.558;2022-08-21T02:52:32;3.80;;;2.80;;
44456;SDS011;30159;49.316;8.558;2022-08-21T02:54:59;3.23;;;3.03;;
44456;SDS011;30159;49.316;8.558;2022-08-21T02:57:26;3.40;;;3.20;;
44456;SDS011;30159;49.316;8.558;2022-08-21T02:59:53;3.60;;;3.17;;
44456;SDS011;30159;49.316;8.558;2022-08-21T03:02:19;2.93;;;2.73;;
44456;SDS011;30159;49.316;8.558;2022-08-21T03:04:49;3.10;;;2.90;;
44456;SDS011;30159;49.316;8.558;2022-08-21T03:07:16;3.30;;;3.00;;
44456;SDS011;30159;49.316;8.558;2022-08-21T03:09:42;2.60;;;2.40;;
44456;SDS011;30159;49.316;8.558;2022-08-21T03:12:09;2.60;;;2.40;;
44456;SDS011;30159;49.316;8.558;2022-08-21T03:14:36;3.77;;;3.47;;
44456;SDS011;30159;49.316;8.558;2022-08-21T03:17:03;3.30;;;3.10;;
44456;SDS011;30159;49.316;8.558;2022-08-21T03:19:30;5.67;;;2.93;;
44456;SDS011;30159;49.316;8.558;2022-08-21T03:21:58;4.10;;;3.63;;
44456;SDS011;30159;49.316;8.558;2022-08-21T03:24:24;3.83;;;2.87;;
44456;SDS011;30159;49.316;8.558;2022-08-21T03:26:51;3.50;;;3.03;;
44456;SDS011;30159;49.316;8.558;2022-08-21T03:29:17;11.43;;;3.07;;
44456;SDS011;30159;49.316;8.558;2022-08-21T03:31:44;2.77;;;2.57;;
44456;SDS011;30159;49.316;8.558;2022-08-21T03:34:10;3.20;;;2.90;;
44456;SDS011;30159;49.316;8.558;2022-08-21T03:36:37;2.80;;;2.60;;
44456;SDS011;30159;49.316;8.558;2022-08-21T03:39:05;4.30;;;2.70;;
44456;SDS011;30159;49.316;8.558;2022-08-21T03:41:32;4.03;;;3.07;;
44456;SDS011;30159;49.316;8.558;2022-08-21T03:43:58;3.30;;;3.00;;
44456;SDS011;30159;49.316;8.558;2022-08-21T03:46:25;3.13;;;2.93;;
44456;SDS011;30159;49.316;8.558;2022-08-21T03:48:51;2.83;;;2.63;;
44456;SDS011;30159;49.316;8.558;2022-08-21T03:51:18;3.23;;;2.13;;
44456;SDS011;30159;49.316;8.558;2022-08-21T03:53:44;4.00;;;2.53;;
44456;SDS011;30159;49.316;8.558;2022-08-21T03:56:12;2.60;;;2.40;;
44456;SDS011;30159;49.316;8.558;2022-08-21T03:58:41;4.90;;;2.33;;
44456;SDS011;30159;49.316;8.558;2022-08-21T04:01:07;3.07;;;2.50;;
44456;SDS011;30159;49.316;8.558;2022-08-21T04:03:34;5.70;;;3.30;;
44456;SDS011;30159;49.316;8.558;2022-08-21T04:06:02;3.20;;;3.00;;
44456;SDS011;30159;49.316;8.558;2022-08-21T04:08:29;3.90;;;2.83;;
44456;SDS011;30159;49.316;8.558;2022-08-21T04:10:56;2.80;;;2.60;;
44456;SDS011;30159;49.316;8.558;2022-08-21T04:13:26;3.00;;;2.80;;
44456;SDS011;30159;49.316;8.558;2022-08-21T04:15:54;4.23;;;3.83;;
44456;SDS011;30159;49.316;8.558;2022-08-21T04:18:20;3.80;;;3.27;;
44456;SDS011;30159;49.316;8.558;2022-08-21T04:20:47;2.80;;;2.60;;
44456;SDS011;30159;49.316;8.558;2022-08-21T04:23:17;2.83;;;2.63;;
44456;SDS011;30159;49.316;8.558;2022-08-21T04:25:44;2.57;;;2.37;;
44456;SDS011;30159;49.316;8.558;2022-08-21T04:28:11;3.77;;;3.50;;
44456;SDS011;30159;49.316;8.558;2022-08-21T04:30:39;2.37;;;2.27;;
44456;SDS011;30159;49.316;8.558;2022-08-21T04:33:05;3.00;;;2.80;;
44456;SDS011;30159;49.316;8.558;2022-08-21T04:35:32;2.73;;;2.53;;
44456;SDS011;30159;49.316;8.558;2022-08-21T04:37:59;2.70;;;2.50;;
44456;SDS011;30159;49.316;8.558;2022-08-21T04:40:26;3.47;;;3.10;;
44456;SDS011;30159;49.316;8.558;2022-08-21T04:42:55;3.07;;;2.67;;
44456;SDS011;30159;49.316;8.558;2022-08-21T04:45:26;2.90;;;2.60;;
44456;SDS011;30159;49.316;8.558;2022-08-21T04:47:57;3.53;;;3.17;;
44456;SDS011;30159;49.316;8.558;2022-08-21T04:50:27;3.40;;;3.10;;
44456;SDS011;30159;49.316;8.558;2022-08-21T04:52:57;2.30;;;2.10;;
44456;SDS011;30159;49.316;8.558;2022-08-21T04:55:26;5.47;;;2.80;;
44456;SDS011;30159;49.316;8.558;2022-08-21T04:57:54;6.03;;;2.97;;
44456;SDS011;30159;49.316;8.558;2022-08-21T05:00:22;2.97;;;2.73;;
44456;SDS011;30159;49.316;8.558;2022-08-21T05:02:50;3.43;;;3.13;;
44456;SDS011;30159;49.316;8.558;2022-08-21T05:05:22;4.03;;;3.10;;
44456;SDS011;30159;49.316;8.558;2022-08-21T05:07:50;6.80;;;3.17;;
44456;SDS011;30159;49.316;8.558;2022-08-21T05:10:18;3.83;;;2.63;;
44456;SDS011;30159;49.316;8.558;2022-08-21T05:12:45;2.73;;;2.50;;
44456;SDS011;30159;49.316;8.558;2022-08-21T05:15:12;5.77;;;3.17;;
44456;SDS011;30159;49.316;8.558;2022-08-21T05:17:39;3.17;;;2.87;;
44456;SDS011;30159;49.316;8.558;2022-08-21T05:20:06;3.50;;;2.97;;
44456;SDS011;30159;49.316;8.558;2022-08-21T05:22:34;3.00;;;2.80;;
44456;SDS011;30159;49.316;8.558;2022-08-21T05:25:01;3.33;;;3.03;;
44456;SDS011;30159;49.316;8.558;2022-08-21T05:27:28;2.90;;;2.70;;
44456;SDS011;30159;49.316;8.558;2022-08-21T05:29:55;3.50;;;3.20;;
44456;SDS011;30159;49.316;8.558;2022-08-21T05:32:22;3.63;;;3.33;;
44456;SDS011;30159;49.316;8.558;2022-08-21T05:34:49;2.93;;;2.73;;
44456;SDS011;30159;49.316;8.558;2022-08-21T05:37:16;3.60;;;2.97;;
44456;SDS011;30159;49.316;8.558;2022-08-21T05:39:44;4.10;;;3.57;;
44456;SDS011;30159;49.316;8.558;2022-08-21T05:42:11;3.40;;;3.20;;
44456;SDS011;30159;49.316;8.558;2022-08-21T05:44:37;3.00;;;2.80;;
44456;SDS011;30159;49.316;8.558;2022-08-21T05:47:04;3.20;;;3.00;;
44456;SDS011;30159;49.316;8.558;2022-08-21T05:49:31;3.13;;;2.93;;
44456;SDS011;30159;49.316;8.558;2022-08-21T05:52:01;3.10;;;2.90;;
44456;SDS011;30159;49.316;8.558;2022-08-21T05:54:28;3.13;;;2.93;;
44456;SDS011;30159;49.316;8.558;2022-08-21T05:56:56;2.93;;;2.63;;
44456;SDS011;30159;49.316;8.558;2022-08-21T05:59:23;3.27;;;2.80;;
44456;SDS011;30159;49.316;8.558;2022-08-21T06:01:50;3.63;;;3.43;;
44456;SDS011;30159;49.316;8.558;2022-08-21T06:04:17;3.57;;;2.83;;
44456;SDS011;30159;49.316;8.558;2022-08-21T06:06:44;3.10;;;2.90;;
44456;SDS011;30159;49.316;8.558;2022-08-21T06:09:11;4.40;;;2.90;;
44456;SDS011;30159;49.316;8.558;2022-08-21T06:11:38;2.80;;;2.70;;
44456;SDS011;30159;49.316;8.558;2022-08-21T06:14:06;3.00;;;2.80;;
44456;SDS011;30159;49.316;8.558;2022-08-21T06:16:32;6.93;;;3.17;;
44456;SDS011;30159;49.316;8.558;2022-08-21T06:18:59;3.70;;;3.50;;
44456;SDS011;30159;49.316;8.558;2022-08-21T06:21:25;4.53;;;3.50;;
44456;SDS011;30159;49.316;8.558;2022-08-21T06:23:52;3.13;;;2.93;;
44456;SDS011;30159;49.316;8.558;2022-08-21T06:26:18;4.00;;;3.80;;
44456;SDS011;30159;49.316;8.558;2022-08-21T06:28:45;3.97;;;3.60;;
44456;SDS011;30159;49.316;8.558;2022-08-21T06:31:14;3.53;;;3.33;;
44456;SDS011;30159;49.316;8.558;2022-08-21T06:33:42;3.53;;;3.33;;
44456;SDS011;30159;49.316;8.558;2022-08-21T06:36:09;4.23;;;4.03;;
44456;SDS011;30159;49.316;8.558;2022-08-21T06:38:36;3.97;;;3.67;;
44456;SDS011;30159;49.316;8.558;2022-08-21T06:41:03;4.30;;;4.10;;
44456;SDS011;30159;49.316;8.558;2022-08-21T06:43:30;3.63;;;3.40;;
44456;SDS011;30159;49.316;8.558;2022-08-21T06:45:57;3.37;;;3.17;;
44456;SDS011;30159;49.316;8.558;2022-08-21T06:48:24;3.80;;;3.60;;
44456;SDS011;30159;49.316;8.558;2022-08-21T06:50:51;3.70;;;3.50;;
44456;SDS011;30159;49.316;8.558;2022-08-21T06:53:19;4.13;;;3.20;;
44456;SDS011;30159;49.316;8.558;2022-08-21T06:55:46;3.77;;;3.53;;
44456;SDS011;30159;49.316;8.558;2022-08-21T06:58:14;4.17;;;3.77;;
44456;SDS011;30159;49.316;8.558;2022-08-21T07:00:44;3.47;;;3.20;;
44456;SDS011;30159;49.316;8.558;2022-08-21T07:03:16;3.93;;;3.60;;
44456;SDS011;30159;49.316;8.558;2022-08-21T07:05:48;4.33;;;4.13;;
44456;SDS011;30159;49.316;8.558;2022-08-21T07:08:14;4.47;;;4.27;;
44456;SDS011;30159;49.316;8.558;2022-08-21T07:10:41;3.67;;;3.47;;
44456;SDS011;30159;49.316;8.558;2022-08-21T07:13:08;3.87;;;3.57;;
44456;SDS011;30159;49.316;8.558;2022-08-21T07:15:34;2.93;;;2.73;;
44456;SDS011;30159;49.316;8.558;2022-08-21T07:18:01;3.83;;;3.07;;
44456;SDS011;30159;49.316;8.558;2022-08-21T07:20:29;3.30;;;3.10;;
44456;SDS011;30159;49.316;8.558;2022-08-21T07:22:58;3.27;;;3.00;;
44456;SDS011;30159;49.316;8.558;2022-08-21T07:25:27;2.90;;;2.70;;
44456;SDS011;30159;49.316;8.558;2022-08-21T07:27:53;4.70;;;2.97;;
44456;SDS011;30159;49.316;8.558;2022-08-21T07:30:20;3.10;;;2.53;;
44456;SDS011;30159;49.316;8.558;2022-08-21T07:32:48;3.00;;;2.80;;
44456;SDS011;30159;49.316;8.558;2022-08-21T07:35:15;2.80;;;2.60;;
44456;SDS011;30159;49.316;8.558;2022-08-21T07:37:41;3.17;;;2.97;;
44456;SDS011;30159;49.316;8.558;2022-08-21T07:40:10;3.17;;;2.63;;
44456;SDS011;30159;49.316;8.558;2022-08-21T07:42:39;3.13;;;2.93;;
44456;SDS011;30159;49.316;8.558;2022-08-21T07:45:06;2.93;;;2.73;;
44456;SDS011;30159;49.316;8.558;2022-08-21T07:47:34;2.63;;;2.43;;
44456;SDS011;30159;49.316;8.558;2022-08-21T07:50:01;3.80;;;2.80;;
44456;SDS011;30159;49.316;8.558;2022-08-21T07:52:27;2.13;;;2.00;;
44456;SDS011;30159;49.316;8.558;2022-08-21T07:54:54;3.27;;;2.90;;
44456;SDS011;30159;49.316;8.558;2022-08-21T07:57:22;3.10;;;2.90;;
44456;SDS011;30159;49.316;8.558;2022-08-21T07:59:48;3.50;;;3.17;;
44456;SDS011;30159;49.316;8.558;2022-08-21T08:02:21;2.73;;;2.57;;
44456;SDS011;30159;49.316;8.558;2022-08-21T08:04:48;3.00;;;2.80;;
44456;SDS011;30159;49.316;8.558;2022-08-21T08:07:15;2.40;;;2.20;;
44456;SDS011;30159;49.316;8.558;2022-08-21T08:09:42;2.93;;;2.50;;
44456;SDS011;30159;49.316;8.558;2022-08-21T08:12:09;4.23;;;2.43;;
44456;SDS011;30159;49.316;8.558;2022-08-21T08:14:37;2.17;;;2.07;;
44456;SDS011;30159;49.316;8.558;2022-08-21T08:17:03;4.20;;;3.33;;
44456;SDS011;30159;49.316;8.558;2022-08-21T08:19:30;4.53;;;2.77;;
44456;SDS011;30159;49.316;8.558;2022-08-21T08:21:56;3.00;;;2.67;;
44456;SDS011;30159;49.316;8.558;2022-08-21T08:24:23;3.00;;;2.60;;
44456;SDS011;30159;49.316;8.558;2022-08-21T08:26:49;2.20;;;2.10;;
44456;SDS011;30159;49.316;8.558;2022-08-21T08:29:16;3.10;;;2.90;;
44456;SDS011;30159;49.316;8.558;2022-08-21T08:31:44;2.77;;;2.57;;
44456;SDS011;30159;49.316;8.558;2022-08-21T08:34:10;4.53;;;2.67;;
44456;SDS011;30159;49.316;8.558;2022-08-21T08:36:37;3.77;;;2.30;;
44456;SDS011;30159;49.316;8.558;2022-08-21T08:39:04;5.00;;;2.80;;
44456;SDS011;30159;49.316;8.558;2022-08-21T08:41:31;4.27;;;2.73;;
44456;SDS011;30159;49.316;8.558;2022-08-21T08:44:02;3.40;;;3.10;;
44456;SDS011;30159;49.316;8.558;2022-08-21T08:46:31;3.87;;;2.27;;
44456;SDS011;30159;49.316;8.558;2022-08-21T08:49:05;2.80;;;2.60;;
44456;SDS011;30159;49.316;8.558;2022-08-21T08:51:37;3.03;;;2.20;;
44456;SDS011;30159;49.316;8.558;2022-08-21T08:54:11;3.30;;;2.67;;
44456;SDS011;30159;49.316;8.558;2022-08-21T08:56:41;3.13;;;2.27;;
44456;SDS011;30159;49.316;8.558;2022-08-21T08:59:11;4.23;;;2.93;;
44456;SDS011;30159;49.316;8.558;2022-08-21T09:01:41;2.30;;;2.10;;
44456;SDS011;30159;49.316;8.558;2022-08-21T09:04:10;2.70;;;2.50;;
44456;SDS011;30159;49.316;8.558;2022-08-21T09:06:49;3.60;;;3.30;;
44456;SDS011;30159;49.316;8.558;2022-08-21T09:09:25;3.40;;;2.40;;
44456;SDS011;30159;49.316;8.558;2022-08-21T09:12:02;4.83;;;3.07;;
44456;SDS011;30159;49.316;8.558;2022-08-21T09:14:38;4.97;;;3.03;;
44456;SDS011;30159;49.316;8.558;2022-08-21T09:17:17;4.73;;;2.97;;
44456;SDS011;30159;49.316;8.558;2022-08-21T09:19:59;2.85;;;2.58;;
44456;SDS011;30159;49.316;8.558;2022-08-21T09:22:36;3.10;;;2.90;;
44456;SDS011;30159;49.316;8.558;2022-08-21T09:25:11;3.03;;;2.83;;
44456;SDS011;30159;49.316;8.558;2022-08-21T09:27:43;2.83;;;2.03;;
44456;SDS011;30159;49.316;8.558;2022-08-21T09:30:10;2.60;;;2.40;;
44456;SDS011;30159;49.316;8.558;2022-08-21T09:32:38;4.17;;;2.87;;
44456;SDS011;30159;49.316;8.558;2022-08-21T09:35:08;2.80;;;2.43;;
44456;SDS011;30159;49.316;8.558;2022-08-21T09:37:45;3.23;;;2.77;;
44456;SDS011;30159;49.316;8.558;2022-08-21T09:40:26;2.73;;;2.53;;
44456;SDS011;30159;49.316;8.558;2022-08-21T09:42:57;2.93;;;2.40;;
44456;SDS011;30159;49.316;8.558;2022-08-21T09:45:24;2.60;;;2.40;;
44456;SDS011;30159;49.316;8.558;2022-08-21T09:47:51;2.50;;;2.30;;
44456;SDS011;30159;49.316;8.558;2022-08-21T09:50:20;3.37;;;2.37;;
44456;SDS011;30159;49.316;8.558;2022-08-21T09:52:49;3.13;;;2.20;;
44456;SDS011;30159;49.316;8.558;2022-08-21T09:55:19;2.57;;;2.47;;
44456;SDS011;30159;49.316;8.558;2022-08-21T09:58:07;3.70;;;2.73;;
44456;SDS011;30159;49.316;8.558;2022-08-21T10:00:34;4.37;;;2.93;;
44456;SDS011;30159;49.316;8.558;2022-08-21T10:03:09;4.20;;;2.43;;
44456;SDS011;30159;49.316;8.558;2022-08-21T10:05:39;3.50;;;2.30;;
44456;SDS011;30159;49.316;8.558;2022-08-21T10:08:16;2.40;;;2.30;;
44456;SDS011;30159;49.316;8.558;2022-08-21T10:10:49;2.10;;;1.90;;
44456;SDS011;30159;49.316;8.558;2022-08-21T10:13:21;2.20;;;2.00;;
44456;SDS011;30159;49.316;8.558;2022-08-21T10:15:56;3.10;;;1.70;;
44456;SDS011;30159;49.316;8.558;2022-08-21T10:18:35;2.80;;;2.00;;
44456;SDS011;30159;49.316;8.558;2022-08-21T10:21:09;1.80;;;1.70;;
44456;SDS011;30159;49.316;8.558;2022-08-21T10:23:52;2.50;;;1.87;;
44456;SDS011;30159;49.316;8.558;2022-08-21T10:26:41;2.10;;;1.90;;
44456;SDS011;30159;49.316;8.558;2022-08-21T10:29:19;2.47;;;2.27;;
44456;SDS011;30159;49.316;8.558;2022-08-21T10:32:01;2.33;;;2.13;;
44456;SDS011;30159;49.316;8.558;2022-08-21T10:34:37;2.57;;;2.20;;
44456;SDS011;30159;49.316;8.558;2022-08-21T10:37:16;2.23;;;1.87;;
44456;SDS011;30159;49.316;8.558;2022-08-21T10:39:51;3.83;;;3.53;;
44456;SDS011;30159;49.316;8.558;2022-08-21T10:42:30;2.50;;;2.17;;
44456;SDS011;30159;49.316;8.558;2022-08-21T10:45:07;2.10;;;1.90;;
44456;SDS011;30159;49.316;8.558;2022-08-21T10:47:40;3.90;;;2.27;;
44456;SDS011;30159;49.316;8.558;2022-08-21T10:50:12;2.90;;;1.80;;
44456;SDS011;30159;49.316;8.558;2022-08-21T10:52:50;2.90;;;1.83;;
44456;SDS011;30159;49.316;8.558;2022-08-21T10:55:31;2.83;;;1.87;;
44456;SDS011;30159;49.316;8.558;2022-08-21T10:58:00;1.70;;;1.60;;
44456;SDS011;30159;49.316;8.558;2022-08-21T11:00:33;2.00;;;1.80;;
44456;SDS011;30159;49.316;8.558;2022-08-21T11:03:05;1.87;;;1.77;;
44456;SDS011;30159;49.316;8.558;2022-08-21T11:05:38;2.40;;;2.20;;
44456;SDS011;30159;49.316;8.558;2022-08-21T11:08:12;4.90;;;2.63;;
44456;SDS011;30159;49.316;8.558;2022-08-21T11:10:42;5.50;;;2.23;;
44456;SDS011;30159;49.316;8.558;2022-08-21T11:13:14;2.03;;;1.83;;
44456;SDS011;30159;49.316;8.558;2022-08-21T11:15:45;2.17;;;1.97;;
44456;SDS011;30159;49.316;8.558;2022-08-21T11:18:20;2.10;;;1.90;;
44456;SDS011;30159;49.316;8.558;2022-08-21T11:20:54;2.60;;;2.13;;
44456;SDS011;30159;49.316;8.558;2022-08-21T11:23:30;2.13;;;1.83;;
44456;SDS011;30159;49.316;8.558;2022-08-21T11:26:06;3.73;;;2.10;;
44456;SDS011;30159;49.316;8.558;2022-08-21T11:28:38;2.57;;;1.83;;
44456;SDS011;30159;49.316;8.558;2022-08-21T11:31:13;2.33;;;2.20;;
44456;SDS011;30159;49.316;8.558;2022-08-21T11:33:56;2.90;;;2.20;;
44456;SDS011;30159;49.316;8.558;2022-08-21T11:36:34;3.83;;;2.50;;
44456;SDS011;30159;49.316;8.558;2022-08-21T11:39:12;2.10;;;1.90;;
44456;SDS011;30159;49.316;8.558;2022-08-21T11:41:49;2.80;;;1.77;;
44456;SDS011;30159;49.316;8.558;2022-08-21T11:44:25;2.50;;;1.90;;
44456;SDS011;30159;49.316;8.558;2022-08-21T11:47:03;1.97;;;1.87;;
44456;SDS011;30159;49.316;8.558;2022-08-21T11:49:40;2.93;;;1.80;;
44456;SDS011;30159;49.316;8.558;2022-08-21T11:52:21;2.03;;;1.93;;
44456;SDS011;30159;49.316;8.558;2022-08-21T11:54:54;1.90;;;1.73;;
44456;SDS011;30159;49.316;8.558;2022-08-21T11:57:25;1.90;;;1.70;;
44456;SDS011;30159;49.316;8.558;2022-08-21T11:59:57;2.30;;;2.20;;
44456;SDS011;30159;49.316;8.558;2022-08-21T12:02:28;2.17;;;1.97;;
44456;SDS011;30159;49.316;8.558;2022-08-21T12:05:00;1.97;;;1.80;;
44456;SDS011;30159;49.316;8.558;2022-08-21T12:07:32;2.30;;;2.10;;
44456;SDS011;30159;49.316;8.558;2022-08-21T12:10:05;2.03;;;1.93;;
44456;SDS011;30159;49.316;8.558;2022-08-21T12:12:34;1.70;;;1.60;;
44456;SDS011;30159;49.316;8.558;2022-08-21T12:17:53;3.47;;;1.83;;
44456;SDS011;30159;49.316;8.558;2022-08-21T12:20:25;2.70;;;1.83;;
44456;SDS011;30159;49.316;8.558;2022-08-21T12:23:05;5.83;;;3.20;;
44456;SDS011;30159;49.316;8.558;2022-08-21T12:25:46;1.60;;;1.50;;
44456;SDS011;30159;49.316;8.558;2022-08-21T12:28:25;2.00;;;1.53;;
44456;SDS011;30159;49.316;8.558;2022-08-21T12:30:54;1.80;;;1.70;;
44456;SDS011;30159;49.316;8.558;2022-08-21T12:33:22;1.97;;;1.87;;
44456;SDS011;30159;49.316;8.558;2022-08-21T12:35:52;2.47;;;1.60;;
44456;SDS011;30159;49.316;8.558;2022-08-21T12:38:31;1.47;;;1.37;;
44456;SDS011;30159;49.316;8.558;2022-08-21T12:41:09;1.67;;;1.57;;
44456;SDS011;30159;49.316;8.558;2022-08-21T12:43:42;2.10;;;1.40;;
44456;SDS011;30159;49.316;8.558;2022-08-21T12:46:14;1.33;;;1.23;;
44456;SDS011;30159;49.316;8.558;2022-08-21T12:48:45;2.20;;;2.10;;
44456;SDS011;30159;49.316;8.558;2022-08-21T12:51:17;1.77;;;1.67;;
44456;SDS011;30159;49.316;8.558;2022-08-21T12:53:49;2.23;;;2.03;;
44456;SDS011;30159;49.316;8.558;2022-08-21T12:56:21;1.60;;;1.50;;
44456;SDS011;30159;49.316;8.558;2022-08-21T12:58:50;1.50;;;1.40;;
44456;SDS011;30159;49.316;8.558;2022-08-21T13:01:19;2.30;;;1.40;;
44456;SDS011;30159;49.316;8.558;2022-08-21T13:03:49;1.50;;;1.40;;
44456;SDS011;30159;49.316;8.558;2022-08-21T13:06:17;1.60;;;1.50;;
44456;SDS011;30159;49.316;8.558;2022-08-21T13:08:46;2.03;;;1.50;;
44456;SDS011;30159;49.316;8.558;2022-08-21T13:11:18;2.60;;;2.00;;
44456;SDS011;30159;49.316;8.558;2022-08-21T13:13:48;3.80;;;1.90;;
44456;SDS011;30159;49.316;8.558;2022-08-21T13:16:18;3.90;;;1.80;;
44456;SDS011;30159;49.316;8.558;2022-08-21T13:18:53;1.60;;;1.50;;
44456;SDS011;30159;49.316;8.558;2022-08-21T13:21:26;1.53;;;1.40;;
44456;SDS011;30159;49.316;8.558;2022-08-21T13:24:06;2.00;;;1.90;;
44456;SDS011;30159;49.316;8.558;2022-08-21T13:26:37;2.43;;;2.23;;
44456;SDS011;30159;49.316;8.558;2022-08-21T13:29:06;1.80;;;1.70;;
44456;SDS011;30159;49.316;8.558;2022-08-21T13:31:35;1.63;;;1.53;;
44456;SDS011;30159;49.316;8.558;2022-08-21T13:34:04;1.83;;;1.73;;
44456;SDS011;30159;49.316;8.558;2022-08-21T13:36:34;2.87;;;2.60;;
44456;SDS011;30159;49.316;8.558;2022-08-21T13:39:02;1.73;;;1.63;;
44456;SDS011;30159;49.316;8.558;2022-08-21T13:41:32;2.83;;;1.60;;
44456;SDS011;30159;49.316;8.558;2022-08-21T13:44:04;3.00;;;1.43;;
44456;SDS011;30159;49.316;8.558;2022-08-21T13:46:32;2.23;;;1.50;;
44456;SDS011;30159;49.316;8.558;2022-08-21T13:49:02;2.03;;;1.80;;
44456;SDS011;30159;49.316;8.558;2022-08-21T13:51:31;1.80;;;1.70;;
44456;SDS011;30159;49.316;8.558;2022-08-21T13:53:58;2.10;;;1.53;;
44456;SDS011;30159;49.316;8.558;2022-08-21T13:56:25;3.40;;;1.80;;
44456;SDS011;30159;49.316;8.558;2022-08-21T13:58:54;1.70;;;1.60;;
44456;SDS011;30159;49.316;8.558;2022-08-21T14:01:25;1.40;;;1.30;;
44456;SDS011;30159;49.316;8.558;2022-08-21T14:03:54;1.87;;;1.77;;
44456;SDS011;30159;49.316;8.558;2022-08-21T14:06:26;1.50;;;1.40;;
44456;SDS011;30159;49.316;8.558;2022-08-21T14:08:55;1.40;;;1.30;;
44456;SDS011;30159;49.316;8.558;2022-08-21T14:11:24;2.03;;;1.50;;
44456;SDS011;30159;49.316;8.558;2022-08-21T14:13:56;2.90;;;1.57;;
44456;SDS011;30159;49.316;8.558;2022-08-21T14:16:26;2.73;;;1.50;;
44456;SDS011;30159;49.316;8.558;2022-08-21T14:19:07;1.70;;;1.60;;
44456;SDS011;30159;49.316;8.558;2022-08-21T14:21:36;1.63;;;1.40;;
44456;SDS011;30159;49.316;8.558;2022-08-21T14:24:08;2.07;;;1.87;;
44456;SDS011;30159;49.316;8.558;2022-08-21T14:26:42;1.80;;;1.67;;
44456;SDS011;30159;49.316;8.558;2022-08-21T14:29:13;1.73;;;1.63;;
44456;SDS011;30159;49.316;8.558;2022-08-21T14:31:43;2.03;;;1.40;;
44456;SDS011;30159;49.316;8.558;2022-08-21T14:34:15;1.40;;;1.30;;
44456;SDS011;30159;49.316;8.558;2022-08-21T14:36:42;2.27;;;2.07;;
44456;SDS011;30159;49.316;8.558;2022-08-21T14:39:09;1.97;;;1.50;;
44456;SDS011;30159;49.316;8.558;2022-08-21T14:41:36;1.80;;;1.50;;
44456;SDS011;30159;49.316;8.558;2022-08-21T14:44:03;1.60;;;1.50;;
44456;SDS011;30159;49.316;8.558;2022-08-21T14:46:31;3.40;;;1.80;;
44456;SDS011;30159;49.316;8.558;2022-08-21T14:49:01;1.83;;;1.73;;
44456;SDS011;30159;49.316;8.558;2022-08-21T14:51:28;2.00;;;1.50;;
44456;SDS011;30159;49.316;8.558;2022-08-21T14:53:54;1.73;;;1.60;;
44456;SDS011;30159;49.316;8.558;2022-08-21T14:56:21;1.80;;;1.70;;
44456;SDS011;30159;49.316;8.558;2022-08-21T14:58:50;3.00;;;1.70;;
44456;SDS011;30159;49.316;8.558;2022-08-21T15:01:18;1.90;;;1.70;;
44456;SDS011;30159;49.316;8.558;2022-08-21T15:03:47;3.60;;;1.60;;
44456;SDS011;30159;49.316;8.558;2022-08-21T15:06:15;1.83;;;1.70;;